Terminal Aerodrome Forecast
Issued by NWS

Home | Current Version | Previous Version | Text Only | Print | Product List | Glossary On
Versions: 1 2 3 4 5 6 7 8 9 10 11 12 13 14 15 16 17
242
FTAK31 PAJN 260545 RRA
TAFAPG
TAF
PAPG 260545Z 2606/2706 VRB04KT 5SM -RA SCT005 OVC010
      TEMPO 2606/2609 1SM -RA BR OVC003
     FM260900 00000KT 4SM -RA BR SCT003 OVC007
     FM261800 VRB03KT 6SM -RA SCT010 OVC012
     FM270300 00000KT 4SM -RA BR OVC025
      AMD NOT SKED=

USA.gov is the U.S. government's official web portal to all federal, state and local government web resources and services.